Time;durP1;ratioP1;P1;durP2;ratioP2;P2;SDS_P1;SDS_P2;PMS_P1;PMS_P2;Temp;Humidity;BMP_temperature;BMP_pressure;BME280_temperature;BME280_humidity;BME280_pressure;Samples;Min_cycle;Max_cycle;Signal;HPM_P1;HPM_P2
2023/12/05 00:02:10;;;;;;;10.80;6.82;;;3.30;99.90;;;;;;4904205;29;20047;-83
2023/12/05 00:04:37;;;;;;;10.18;6.00;;;3.40;99.90;;;;;;4920522;29;20508;-83
2023/12/05 00:07:04;;;;;;;8.73;5.65;;;3.40;99.90;;;;;;4904058;29;20066;-83
2023/12/05 00:09:32;;;;;;;12.88;7.28;;;3.30;99.90;;;;;;4929835;29;20059;-83
2023/12/05 00:11:59;;;;;;;10.82;6.20;;;3.40;99.90;;;;;;4900097;29;20047;-84
2023/12/05 00:14:26;;;;;;;11.13;7.47;;;3.40;99.90;;;;;;4924132;29;20051;-83
2023/12/05 00:16:53;;;;;;;11.40;6.90;;;3.30;99.90;;;;;;4894630;29;20419;-83
2023/12/05 00:19:20;;;;;;;10.00;6.07;;;3.40;99.90;;;;;;4887828;29;20090;-83
2023/12/05 00:21:47;;;;;;;12.57;8.05;;;3.30;99.90;;;;;;4920683;29;20055;-83
2023/12/05 00:24:14;;;;;;;11.90;7.32;;;3.40;99.90;;;;;;4890558;29;20463;-83
2023/12/05 00:26:43;;;;;;;11.50;6.63;;;3.30;99.90;;;;;;4920780;29;20059;-83
2023/12/05 00:29:11;;;;;;;10.35;6.25;;;3.30;99.90;;;;;;4920025;29;20102;-82
2023/12/05 00:31:39;;;;;;;11.15;6.38;;;3.30;99.90;;;;;;4919966;29;20055;-83
2023/12/05 00:34:06;;;;;;;11.57;6.55;;;3.30;99.90;;;;;;4904814;29;20051;-83
2023/12/05 00:36:33;;;;;;;9.38;5.70;;;3.30;99.90;;;;;;4904573;29;20511;-83
2023/12/05 00:39:00;;;;;;;11.40;6.90;;;3.30;99.90;;;;;;4907854;29;20040;-84
2023/12/05 00:41:27;;;;;;;8.63;4.88;;;3.30;99.90;;;;;;4909992;29;20044;-83
2023/12/05 00:43:54;;;;;;;7.88;4.65;;;3.30;99.90;;;;;;4921597;29;20082;-83
2023/12/05 00:46:22;;;;;;;11.70;6.75;;;3.30;99.90;;;;;;4904822;29;20054;-83
2023/12/05 00:48:49;;;;;;;11.85;7.80;;;3.30;99.90;;;;;;4904993;29;20059;-83
2023/12/05 00:51:17;;;;;;;9.48;6.30;;;3.30;99.90;;;;;;4903611;29;20056;-83
2023/12/05 00:53:46;;;;;;;12.10;7.47;;;3.30;99.90;;;;;;4934517;29;20472;-83
2023/12/05 00:56:14;;;;;;;9.55;5.65;;;3.30;99.90;;;;;;4887695;29;20048;-82
2023/12/05 00:58:41;;;;;;;13.18;7.25;;;3.30;99.90;;;;;;4903598;29;20135;-83
2023/12/05 01:01:08;;;;;;;8.85;5.75;;;3.30;99.90;;;;;;4903519;29;20047;-83
2023/12/05 01:03:36;;;;;;;12.68;8.10;;;3.30;99.90;;;;;;4922472;29;20047;-83
2023/12/05 01:06:03;;;;;;;11.13;6.50;;;3.30;99.90;;;;;;4918548;29;20075;-83
2023/12/05 01:08:31;;;;;;;13.95;8.13;;;3.30;99.90;;;;;;4921422;29;20563;-83
2023/12/05 01:10:59;;;;;;;11.95;7.13;;;3.30;99.90;;;;;;4918957;29;20039;-83
2023/12/05 01:13:26;;;;;;;10.93;6.80;;;3.30;99.90;;;;;;4918565;29;20051;-83
2023/12/05 01:15:53;;;;;;;11.98;7.00;;;3.30;99.90;;;;;;4888455;29;20056;-83
2023/12/05 01:18:20;;;;;;;10.23;6.22;;;3.30;99.90;;;;;;4935074;29;20036;-84
2023/12/05 01:20:48;;;;;;;10.10;6.15;;;3.30;99.90;;;;;;4919743;29;20055;-83
2023/12/05 01:23:18;;;;;;;10.68;6.35;;;3.30;99.90;;;;;;4940005;29;20059;-83
2023/12/05 01:25:48;;;;;;;8.50;5.00;;;3.30;99.90;;;;;;4918744;29;20091;-83
2023/12/05 01:28:15;;;;;;;9.43;5.38;;;3.30;99.90;;;;;;4944669;29;20058;-83
2023/12/05 01:30:45;;;;;;;8.65;5.15;;;3.30;99.90;;;;;;4903765;29;20060;-83
2023/12/05 01:33:12;;;;;;;12.38;7.35;;;3.30;99.90;;;;;;4923230;29;20099;-83
2023/12/05 01:35:39;;;;;;;10.05;5.68;;;3.30;99.90;;;;;;4892647;29;20526;-83
2023/12/05 01:38:06;;;;;;;10.48;5.90;;;3.30;99.90;;;;;;4918833;29;20142;-83
2023/12/05 01:40:33;;;;;;;10.10;6.00;;;3.30;99.90;;;;;;4934662;29;20039;-83
2023/12/05 01:43:01;;;;;;;10.32;6.05;;;3.30;99.90;;;;;;4934561;29;20052;-83
2023/12/05 01:45:28;;;;;;;10.50;5.70;;;3.30;99.90;;;;;;4899479;29;20051;-83
2023/12/05 01:47:55;;;;;;;12.38;7.15;;;3.30;99.90;;;;;;4912576;29;20150;-84
2023/12/05 01:50:27;;;;;;;10.38;6.00;;;3.30;99.90;;;;;;4936553;29;20448;-83
2023/12/05 01:52:57;;;;;;;;;;;3.30;99.90;;;;;;4934730;29;20056;-83
2023/12/05 01:55:28;;;;;;;12.25;6.53;;;3.20;99.90;;;;;;4947579;29;19946;-84
2023/12/05 01:57:57;;;;;;;10.48;6.00;;;3.20;99.90;;;;;;4906153;29;20496;-83
2023/12/05 02:00:25;;;;;;;11.00;6.40;;;3.20;99.90;;;;;;4922815;29;20115;-83
2023/12/05 02:02:54;;;;;;;12.60;7.00;;;3.20;99.90;;;;;;4946726;29;20499;-82
2023/12/05 02:05:22;;;;;;;11.85;7.10;;;3.20;99.90;;;;;;4937656;29;20075;-82
2023/12/05 02:07:49;;;;;;;9.95;6.00;;;3.20;99.90;;;;;;4922044;29;20052;-83
2023/12/05 02:10:16;;;;;;;9.32;5.97;;;3.20;99.90;;;;;;4949094;29;20047;-82
2023/12/05 02:12:43;;;;;;;12.43;7.03;;;3.30;99.90;;;;;;4921868;29;20059;-82
2023/12/05 02:15:13;;;;;;;11.00;6.68;;;3.30;99.90;;;;;;4896622;29;20052;-82
2023/12/05 02:18:04;;;;;;;11.65;6.90;;;3.30;99.90;;;;;;4906038;29;20051;-82
2023/12/05 02:20:34;;;;;;;10.98;6.38;;;3.30;99.90;;;;;;4946758;29;20051;-82
2023/12/05 02:23:07;;;;;;;10.85;6.38;;;3.30;99.90;;;;;;4910345;29;20059;-82
2023/12/05 02:25:57;;;;;;;10.80;6.53;;;3.30;99.90;;;;;;4937644;29;20054;-83
2023/12/05 02:28:24;;;;;;;13.13;6.90;;;3.30;99.90;;;;;;4944424;29;20407;-83
2023/12/05 02:30:52;;;;;;;13.25;7.63;;;3.30;99.90;;;;;;4940185;29;20051;-83
2023/12/05 02:33:19;;;;;;;9.87;5.93;;;3.30;99.90;;;;;;4911937;29;20047;-83
2023/12/05 02:35:56;;;;;;;10.83;6.27;;;3.30;99.90;;;;;;4894555;29;20048;-83
2023/12/05 02:38:34;;;;;;;14.63;8.27;;;3.30;99.90;;;;;;4937235;29;20048;-83
2023/12/05 02:41:24;;;;;;;11.60;6.93;;;3.30;99.90;;;;;;4950114;29;20044;-83
2023/12/05 02:44:04;;;;;;;11.73;6.57;;;3.30;99.90;;;;;;4948583;29;20055;-83
2023/12/05 02:46:34;;;;;;;12.85;6.70;;;3.30;99.90;;;;;;4936938;29;20063;-83
2023/12/05 02:49:04;;;;;;;11.10;6.57;;;3.20;99.90;;;;;;4937061;29;20048;-82
2023/12/05 02:51:32;;;;;;;13.45;7.18;;;3.20;99.90;;;;;;4936948;29;20167;-83
2023/12/05 02:54:01;;;;;;;18.67;11.02;;;3.20;99.90;;;;;;4924938;29;20059;-82
2023/12/05 02:56:29;;;;;;;17.27;9.97;;;3.20;99.90;;;;;;4896231;29;20043;-82
2023/12/05 02:58:56;;;;;;;13.88;8.38;;;3.20;99.90;;;;;;4908264;29;20069;-82
2023/12/05 03:01:23;;;;;;;12.80;7.57;;;3.20;99.90;;;;;;4912794;29;20047;-82
2023/12/05 03:03:50;;;;;;;13.70;8.05;;;3.20;99.90;;;;;;4892889;29;20043;-81
2023/12/05 03:06:17;;;;;;;13.55;7.35;;;3.20;99.90;;;;;;4922236;29;20059;-81
2023/12/05 03:08:47;;;;;;;13.23;7.88;;;3.20;99.90;;;;;;4888815;29;20040;-81
2023/12/05 03:11:15;;;;;;;12.95;7.50;;;3.20;99.90;;;;;;4890401;29;20408;-82
2023/12/05 03:13:42;;;;;;;14.27;7.93;;;3.20;99.90;;;;;;4889716;29;20044;-82
2023/12/05 03:16:09;;;;;;;16.10;8.35;;;3.20;99.90;;;;;;4936454;29;20079;-83
2023/12/05 03:18:36;;;;;;;14.50;8.60;;;3.20;99.90;;;;;;4904910;29;20134;-83
2023/12/05 03:21:04;;;;;;;14.05;7.90;;;3.20;99.90;;;;;;4902785;29;20131;-83
2023/12/05 03:23:31;;;;;;;15.50;9.00;;;3.20;99.90;;;;;;4898291;29;20058;-83
2023/12/05 03:25:59;;;;;;;13.13;7.90;;;3.20;99.90;;;;;;4920987;29;20485;-83
2023/12/05 03:28:26;;;;;;;13.10;7.63;;;3.20;99.90;;;;;;4920805;29;20087;-83
2023/12/05 03:30:53;;;;;;;13.65;7.53;;;3.10;99.90;;;;;;4920494;29;20051;-83
2023/12/05 03:33:20;;;;;;;15.00;7.90;;;3.20;99.90;;;;;;4930739;29;20061;-83
2023/12/05 03:35:47;;;;;;;13.93;6.70;;;3.10;99.90;;;;;;4901134;29;20158;-83
2023/12/05 03:38:14;;;;;;;13.32;7.70;;;3.20;99.90;;;;;;4889350;29;20488;-84
2023/12/05 03:40:44;;;;;;;15.13;7.65;;;3.10;99.90;;;;;;4893565;29;20142;-83
2023/12/05 03:43:12;;;;;;;13.15;8.00;;;3.10;99.90;;;;;;4936005;29;20058;-83
2023/12/05 03:45:39;;;;;;;13.60;8.15;;;3.10;99.90;;;;;;4925308;29;20048;-83
2023/12/05 03:48:06;;;;;;;18.50;10.25;;;3.10;99.90;;;;;;4904135;29;20075;-82
2023/12/05 03:50:33;;;;;;;17.63;9.27;;;3.10;99.90;;;;;;4907907;29;20058;-83
2023/12/05 03:53:00;;;;;;;16.83;9.35;;;3.10;99.90;;;;;;4898693;29;20058;-83
2023/12/05 03:55:27;;;;;;;14.48;7.88;;;3.10;99.90;;;;;;4891510;29;20061;-83
2023/12/05 03:57:55;;;;;;;14.85;9.05;;;3.10;99.90;;;;;;4920808;29;20035;-82
2023/12/05 04:00:22;;;;;;;13.70;8.20;;;3.10;99.90;;;;;;4918093;29;20058;-82
2023/12/05 04:02:49;;;;;;;13.30;7.93;;;3.10;99.90;;;;;;4910848;29;20035;-82
2023/12/05 04:05:17;;;;;;;14.33;8.50;;;3.10;99.90;;;;;;4923548;29;20480;-83
2023/12/05 04:07:45;;;;;;;14.63;8.18;;;3.10;99.90;;;;;;4935766;29;20515;-83
2023/12/05 04:10:12;;;;;;;16.05;8.57;;;3.20;99.90;;;;;;4914996;29;20059;-82
2023/12/05 04:12:40;;;;;;;13.87;8.20;;;3.20;99.90;;;;;;4935671;29;20498;-83
2023/12/05 04:15:08;;;;;;;14.50;7.73;;;3.10;99.90;;;;;;4926514;29;20047;-83
2023/12/05 04:17:35;;;;;;;13.63;7.72;;;3.10;99.90;;;;;;4935203;29;20506;-83
2023/12/05 04:20:04;;;;;;;13.57;6.70;;;3.10;99.90;;;;;;4903592;29;20047;-82
2023/12/05 04:22:31;;;;;;;14.27;8.67;;;3.10;99.90;;;;;;4927097;29;20637;-83
2023/12/05 04:24:58;;;;;;;13.82;8.10;;;3.10;99.90;;;;;;4919107;29;20063;-82
2023/12/05 04:27:25;;;;;;;13.77;7.75;;;3.10;99.90;;;;;;4935093;29;20052;-84
2023/12/05 04:29:52;;;;;;;16.42;8.80;;;3.10;99.90;;;;;;4898593;29;20087;-83
2023/12/05 04:32:19;;;;;;;16.30;8.75;;;3.10;99.90;;;;;;4919490;29;20056;-83
2023/12/05 04:34:47;;;;;;;15.32;8.35;;;3.10;99.90;;;;;;4904116;29;20044;-82
2023/12/05 04:37:14;;;;;;;16.42;9.30;;;3.10;99.90;;;;;;4919449;29;20052;-82
2023/12/05 04:39:44;;;;;;;15.13;8.50;;;3.10;99.90;;;;;;4909337;29;20092;-83
2023/12/05 04:42:14;;;;;;;13.55;7.63;;;3.10;99.90;;;;;;4920150;29;20400;-83
2023/12/05 04:44:43;;;;;;;15.32;7.60;;;3.10;99.90;;;;;;4919485;29;20068;-83
2023/12/05 04:47:10;;;;;;;13.57;7.85;;;3.10;99.90;;;;;;4923090;29;20048;-83
2023/12/05 04:49:39;;;;;;;17.65;9.95;;;3.10;99.90;;;;;;4894511;29;20051;-83
2023/12/05 04:52:06;;;;;;;13.93;8.23;;;3.10;99.90;;;;;;4937867;29;20178;-84
2023/12/05 04:54:33;;;;;;;14.77;7.90;;;3.10;99.90;;;;;;4937146;29;20134;-83
2023/12/05 04:57:00;;;;;;;14.27;8.13;;;3.10;99.90;;;;;;4935568;29;20138;-83
2023/12/05 04:59:28;;;;;;;14.17;8.40;;;3.10;99.90;;;;;;4888402;29;20093;-84
2023/12/05 05:01:55;;;;;;;14.77;8.00;;;3.10;99.90;;;;;;4936389;29;20050;-83
2023/12/05 05:04:22;;;;;;;16.70;9.40;;;3.10;99.90;;;;;;4935137;29;20058;-83
2023/12/05 05:06:49;;;;;;;15.87;8.60;;;3.10;99.90;;;;;;4903737;29;20054;-84
2023/12/05 05:09:16;;;;;;;14.65;7.65;;;3.10;99.90;;;;;;4903559;29;20051;-84
2023/12/05 05:11:43;;;;;;;15.83;8.67;;;3.10;99.90;;;;;;4897174;29;20134;-84
2023/12/05 05:14:11;;;;;;;15.93;8.75;;;3.00;99.90;;;;;;4903238;29;20072;-84
2023/12/05 05:16:38;;;;;;;16.20;9.25;;;3.00;99.90;;;;;;4918814;29;20039;-84
2023/12/05 05:19:05;;;;;;;16.05;8.23;;;3.10;99.90;;;;;;4903463;29;20128;-83
2023/12/05 05:21:32;;;;;;;13.02;7.70;;;3.10;99.90;;;;;;4934709;29;20055;-83
2023/12/05 05:23:59;;;;;;;17.63;8.88;;;3.10;99.90;;;;;;4918676;29;20074;-83
2023/12/05 05:26:26;;;;;;;12.83;7.23;;;3.10;99.90;;;;;;4907999;29;20044;-84
2023/12/05 05:28:53;;;;;;;12.67;7.43;;;3.10;99.90;;;;;;4945403;29;20047;-83
2023/12/05 05:31:20;;;;;;;12.70;7.22;;;3.10;99.90;;;;;;4900758;29;20147;-83
2023/12/05 05:33:48;;;;;;;12.13;6.05;;;3.10;99.90;;;;;;4922687;29;20052;-83
2023/12/05 05:36:16;;;;;;;12.63;6.37;;;3.10;99.90;;;;;;4891624;29;20516;-82
2023/12/05 05:38:43;;;;;;;12.30;6.53;;;3.10;99.90;;;;;;4922628;29;20102;-82
2023/12/05 05:41:11;;;;;;;13.37;7.60;;;3.10;99.90;;;;;;4948607;29;20076;-84
2023/12/05 05:43:38;;;;;;;10.43;6.30;;;3.10;99.90;;;;;;4938372;29;20040;-84
2023/12/05 05:46:05;;;;;;;12.23;6.90;;;3.10;99.90;;;;;;4922831;29;20484;-83
2023/12/05 05:48:33;;;;;;;12.40;6.77;;;3.10;99.90;;;;;;4922285;29;20107;-83
2023/12/05 05:51:00;;;;;;;11.55;6.25;;;3.10;99.90;;;;;;4899978;29;20052;-84
2023/12/05 05:53:27;;;;;;;11.53;6.40;;;3.10;99.90;;;;;;4951306;29;20052;-83
2023/12/05 05:55:54;;;;;;;15.97;8.60;;;3.10;99.90;;;;;;4912139;29;20063;-84
2023/12/05 05:58:21;;;;;;;11.20;6.53;;;3.10;99.90;;;;;;4906534;29;20467;-83
2023/12/05 06:00:49;;;;;;;12.53;6.50;;;3.10;99.90;;;;;;4906598;29;20071;-83
2023/12/05 06:03:16;;;;;;;13.80;7.75;;;3.10;99.90;;;;;;4944025;29;20040;-83
2023/12/05 06:05:43;;;;;;;14.17;8.10;;;3.10;99.90;;;;;;4893184;29;20048;-84
2023/12/05 06:08:10;;;;;;;13.80;7.82;;;3.10;99.90;;;;;;4897984;29;20063;-84
2023/12/05 06:10:37;;;;;;;13.83;7.83;;;3.10;99.90;;;;;;4937674;29;20086;-84
2023/12/05 06:13:04;;;;;;;13.20;7.57;;;3.10;99.90;;;;;;4928704;29;20407;-84
2023/12/05 06:15:32;;;;;;;12.00;6.40;;;3.10;99.90;;;;;;4940710;29;20051;-85
2023/12/05 06:17:59;;;;;;;13.10;6.03;;;3.10;99.90;;;;;;4922316;29;20054;-85
2023/12/05 06:20:26;;;;;;;13.50;7.70;;;3.20;99.90;;;;;;4937821;29;20052;-85
2023/12/05 06:22:53;;;;;;;12.20;6.60;;;3.20;99.90;;;;;;4910102;29;20063;-85
2023/12/05 06:25:22;;;;;;;12.60;6.35;;;3.10;99.90;;;;;;4897211;29;20051;-85
2023/12/05 06:27:50;;;;;;;12.00;6.72;;;3.10;99.90;;;;;;4906460;29;20111;-85
2023/12/05 06:30:17;;;;;;;11.10;5.97;;;3.20;99.90;;;;;;4890871;29;20051;-84
2023/12/05 06:32:53;;;;;;;10.77;6.50;;;3.20;99.90;;;;;;4892697;29;20047;-84
2023/12/05 06:35:20;;;;;;;14.63;7.60;;;3.10;99.90;;;;;;4898723;29;20048;-84
2023/12/05 06:37:48;;;;;;;13.75;7.60;;;3.20;99.90;;;;;;4921390;29;20067;-85
2023/12/05 06:40:15;;;;;;;14.25;7.60;;;3.10;99.90;;;;;;4889937;29;20075;-84
2023/12/05 06:42:42;;;;;;;14.88;8.10;;;3.20;99.90;;;;;;4925317;29;20075;-85
2023/12/05 06:45:10;;;;;;;13.37;7.60;;;3.20;99.90;;;;;;4921873;29;20047;-85
2023/12/05 06:47:40;;;;;;;13.23;7.43;;;3.10;99.90;;;;;;4928709;29;20474;-85
2023/12/05 06:50:10;;;;;;;12.63;7.00;;;3.10;99.90;;;;;;4939434;29;20052;-84
2023/12/05 06:52:40;;;;;;;13.75;7.07;;;3.20;99.90;;;;;;4922454;29;20099;-84
2023/12/05 06:55:09;;;;;;;10.23;5.93;;;3.20;99.90;;;;;;4938016;29;20099;-84
2023/12/05 06:57:36;;;;;;;15.18;8.38;;;3.20;99.90;;;;;;4891109;29;20103;-86
2023/12/05 07:00:04;;;;;;;20.38;8.45;;;3.20;99.90;;;;;;4905986;29;20039;-85
2023/12/05 07:02:32;;;;;;;12.82;7.13;;;3.20;99.90;;;;;;4940772;29;20209;-85
2023/12/05 07:05:02;;;;;;;13.77;7.22;;;3.10;99.90;;;;;;4895855;29;20044;-85
2023/12/05 07:07:30;;;;;;;12.80;7.28;;;3.20;99.90;;;;;;4905703;29;20048;-85
2023/12/05 07:09:57;;;;;;;15.40;7.75;;;3.20;99.90;;;;;;4934888;29;20036;-85
2023/12/05 07:12:24;;;;;;;14.80;7.82;;;3.20;99.90;;;;;;4906343;29;20043;-85
2023/12/05 07:14:51;;;;;;;15.13;8.60;;;3.10;99.90;;;;;;4928389;29;20039;-85
2023/12/05 07:17:18;;;;;;;12.20;7.22;;;3.10;99.90;;;;;;4923483;29;20090;-85
2023/12/05 07:19:46;;;;;;;14.50;7.00;;;3.10;99.90;;;;;;4920926;29;20365;-85
2023/12/05 07:22:13;;;;;;;12.40;6.90;;;3.20;99.90;;;;;;4940527;29;20130;-85
2023/12/05 07:24:40;;;;;;;12.55;6.65;;;3.10;99.90;;;;;;4922257;29;20067;-85
2023/12/05 07:27:09;;;;;;;14.38;7.15;;;3.10;99.90;;;;;;4900492;29;20043;-85
2023/12/05 07:29:36;;;;;;;12.65;7.10;;;3.20;99.90;;;;;;4920673;29;20047;-85
2023/12/05 07:32:06;;;;;;;13.77;7.20;;;3.10;99.90;;;;;;4913963;29;20131;-85
2023/12/05 07:34:33;;;;;;;12.73;7.20;;;3.10;99.90;;;;;;4938185;29;20139;-85
2023/12/05 07:37:00;;;;;;;14.33;7.10;;;3.10;99.90;;;;;;4944230;29;20091;-85
2023/12/05 07:39:28;;;;;;;16.02;8.55;;;3.20;99.90;;;;;;4919147;29;20050;-85
2023/12/05 07:41:55;;;;;;;16.02;8.25;;;3.20;99.90;;;;;;4933829;29;20055;-85
2023/12/05 07:44:22;;;;;;;13.77;7.87;;;3.20;99.90;;;;;;4944875;29;20056;-84
2023/12/05 07:46:49;;;;;;;13.87;7.40;;;3.20;99.90;;;;;;4903955;29;20087;-85
2023/12/05 07:49:16;;;;;;;16.38;9.65;;;3.10;99.90;;;;;;4920269;29;20052;-85
2023/12/05 07:51:43;;;;;;;19.98;10.20;;;3.10;99.90;;;;;;4920340;29;20052;-85
2023/12/05 07:54:10;;;;;;;18.25;9.50;;;3.10;99.90;;;;;;4888837;29;20496;-85
2023/12/05 07:56:37;;;;;;;16.15;9.10;;;3.10;99.90;;;;;;4920447;29;20058;-85
2023/12/05 07:59:04;;;;;;;18.85;9.23;;;3.10;99.90;;;;;;4901597;29;20047;-85
2023/12/05 08:01:32;;;;;;;17.83;9.82;;;3.10;99.90;;;;;;4898726;29;20047;-85
2023/12/05 08:04:01;;;;;;;16.30;9.88;;;3.10;99.90;;;;;;4920338;29;20044;-85
2023/12/05 08:06:28;;;;;;;20.17;10.35;;;3.10;99.90;;;;;;4897886;29;20134;-85
2023/12/05 08:08:56;;;;;;;21.08;12.07;;;3.10;99.90;;;;;;4890532;29;20047;-85
2023/12/05 08:11:23;;;;;;;20.73;10.60;;;3.10;99.90;;;;;;4935807;29;20056;-85
2023/12/05 08:13:50;;;;;;;18.23;9.70;;;3.10;99.90;;;;;;4948866;29;20047;-85
2023/12/05 08:16:17;;;;;;;18.77;8.47;;;3.10;99.90;;;;;;4904583;29;20063;-86
2023/12/05 08:18:44;;;;;;;15.23;8.63;;;3.10;99.90;;;;;;4924952;29;20161;-87
2023/12/05 08:21:12;;;;;;;16.13;9.10;;;3.10;99.90;;;;;;4908251;29;20254;-86
2023/12/05 08:23:39;;;;;;;17.63;9.20;;;3.10;99.90;;;;;;4900798;29;20543;-86
2023/12/05 08:26:06;;;;;;;14.48;8.25;;;3.10;99.90;;;;;;4900887;29;20150;-86
2023/12/05 08:28:34;;;;;;;18.87;9.93;;;3.10;99.90;;;;;;4886440;29;20434;-86
2023/12/05 08:31:01;;;;;;;20.37;9.70;;;3.10;99.90;;;;;;4932598;29;20484;-86
2023/12/05 08:33:28;;;;;;;16.40;8.93;;;3.10;99.90;;;;;;4885524;29;20056;-86
2023/12/05 08:35:56;;;;;;;17.45;8.63;;;3.10;99.90;;;;;;4932146;29;20142;-86
2023/12/05 08:38:23;;;;;;;16.20;8.73;;;3.10;99.90;;;;;;4916593;29;20504;-86
2023/12/05 08:40:50;;;;;;;14.02;7.78;;;3.10;99.90;;;;;;4932074;29;20135;-85
2023/12/05 08:43:17;;;;;;;17.25;9.43;;;3.10;99.90;;;;;;4885432;29;20079;-87
2023/12/05 08:45:44;;;;;;;18.50;9.75;;;3.10;99.90;;;;;;4900422;29;20059;-85
2023/12/05 08:48:12;;;;;;;17.45;9.70;;;3.10;99.90;;;;;;4931867;29;20056;-86
2023/12/05 08:50:41;;;;;;;17.75;9.45;;;3.10;99.90;;;;;;4885499;29;20051;-84
2023/12/05 08:53:08;;;;;;;16.15;9.38;;;3.10;99.90;;;;;;4916501;29;20048;-84
2023/12/05 08:55:36;;;;;;;16.98;9.25;;;3.10;99.90;;;;;;4885177;29;20055;-84
2023/12/05 08:58:04;;;;;;;13.93;7.53;;;3.10;99.90;;;;;;4900698;29;20071;-85
2023/12/05 09:00:31;;;;;;;13.88;7.68;;;3.20;99.90;;;;;;4915979;29;20512;-87
2023/12/05 09:03:00;;;;;;;16.85;9.23;;;3.20;99.90;;;;;;4916419;29;20054;-86
2023/12/05 09:05:27;;;;;;;15.13;7.90;;;3.20;99.90;;;;;;4899735;29;20055;-86
2023/12/05 09:07:54;;;;;;;14.63;8.20;;;3.20;99.90;;;;;;4893747;29;20044;-85
2023/12/05 09:10:21;;;;;;;14.30;7.53;;;3.20;99.90;;;;;;4912714;29;20048;-85
2023/12/05 09:12:50;;;;;;;13.93;7.00;;;3.20;99.90;;;;;;4931766;29;20139;-86
2023/12/05 09:15:17;;;;;;;13.77;7.53;;;3.20;99.90;;;;;;4885413;29;20434;-86
2023/12/05 09:17:44;;;;;;;17.50;10.27;;;3.20;99.90;;;;;;4900202;29;20497;-86
2023/12/05 09:20:11;;;;;;;14.90;7.82;;;3.30;99.90;;;;;;4916155;29;20067;-86
2023/12/05 09:22:38;;;;;;;14.55;7.28;;;3.20;99.90;;;;;;4885319;29;20107;-86
2023/12/05 09:25:06;;;;;;;11.55;6.38;;;3.30;99.90;;;;;;4888585;29;20492;-87
2023/12/05 09:27:33;;;;;;;14.95;7.47;;;3.20;99.90;;;;;;4888393;29;20103;-87
2023/12/05 09:30:00;;;;;;;14.45;7.10;;;3.20;99.90;;;;;;4903479;29;20509;-87
2023/12/05 09:32:28;;;;;;;17.05;8.68;;;3.20;99.90;;;;;;4934844;29;20415;-86
2023/12/05 09:34:55;;;;;;;11.70;6.18;;;3.20;99.90;;;;;;4904252;29;20051;-87
2023/12/05 09:37:23;;;;;;;13.65;6.82;;;3.20;99.90;;;;;;4903479;29;20166;-87
2023/12/05 09:39:50;;;;;;;13.13;6.07;;;3.30;99.90;;;;;;4943623;29;20044;-86
2023/12/05 09:42:20;;;;;;;12.93;6.63;;;3.30;99.90;;;;;;4903341;29;20071;-86
2023/12/05 09:44:49;;;;;;;13.10;6.93;;;3.30;99.90;;;;;;4923425;29;20051;-86
2023/12/05 09:47:20;;;;;;;12.73;7.50;;;3.30;99.90;;;;;;4945975;29;20048;-85
2023/12/05 09:49:48;;;;;;;11.85;6.80;;;3.20;99.90;;;;;;4919057;29;20107;-86
2023/12/05 09:52:16;;;;;;;14.52;7.07;;;3.30;99.90;;;;;;4934737;29;20055;-84
2023/12/05 09:54:43;;;;;;;11.02;6.25;;;3.30;99.90;;;;;;4887653;29;20052;-86
2023/12/05 09:57:13;;;;;;;11.50;5.88;;;3.20;99.90;;;;;;4905669;29;20099;-87
2023/12/05 09:59:41;;;;;;;11.60;5.57;;;3.30;99.90;;;;;;4941877;29;20039;-87
2023/12/05 10:02:09;;;;;;;12.63;6.78;;;3.20;99.90;;;;;;4919629;29;20058;-87
2023/12/05 10:04:43;;;;;;;14.70;7.25;;;3.30;99.90;;;;;;4919621;29;20048;-86
2023/12/05 10:07:11;;;;;;;12.32;6.88;;;3.30;99.90;;;;;;4926132;29;20048;-88
2023/12/05 10:09:42;;;;;;;12.38;6.38;;;3.30;99.90;;;;;;4936335;29;20055;-88
2023/12/05 10:12:11;;;;;;;18.73;8.02;;;3.30;99.90;;;;;;4935620;29;20066;-87
2023/12/05 10:14:39;;;;;;;14.35;6.80;;;3.30;99.90;;;;;;4894104;29;20075;-87
2023/12/05 10:17:07;;;;;;;14.77;7.32;;;3.20;99.90;;;;;;4939256;29;20420;-87
2023/12/05 10:19:35;;;;;;;12.35;6.32;;;3.30;99.90;;;;;;4938664;29;20048;-87
2023/12/05 10:22:03;;;;;;;15.35;7.80;;;3.30;99.90;;;;;;4922708;29;20048;-86
2023/12/05 10:24:45;;;;;;;12.50;7.03;;;3.30;99.90;;;;;;4935187;29;20056;-89
2023/12/05 10:27:18;;;;;;;12.93;6.60;;;3.40;99.90;;;;;;4935044;29;20048;-87
2023/12/05 10:29:45;;;;;;;11.82;6.20;;;3.30;99.90;;;;;;4935177;29;20090;-89
2023/12/05 10:32:13;;;;;;;12.48;6.95;;;3.40;99.90;;;;;;4903622;29;20498;-91
2023/12/05 10:35:01;;;;;;;17.98;9.00;;;3.40;99.90;;;;;;4935417;29;20052;-88
2023/12/05 10:37:31;;;;;;;13.73;8.00;;;3.40;99.90;;;;;;4934597;29;20044;-86
2023/12/05 10:39:59;;;;;;;12.07;6.38;;;3.40;99.90;;;;;;4934832;29;20052;-90
2023/12/05 10:42:28;;;;;;;14.93;7.15;;;3.50;99.90;;;;;;4934508;29;20048;-85
2023/12/05 10:44:55;;;;;;;13.02;6.13;;;3.50;99.90;;;;;;4919130;29;20146;-90
2023/12/05 10:47:26;;;;;;;11.80;6.45;;;3.50;99.90;;;;;;4934842;29;20279;-89
2023/12/05 10:49:59;;;;;;;13.60;5.80;;;3.60;99.90;;;;;;4934781;29;20532;-87
2023/12/05 10:52:27;;;;;;;14.00;7.30;;;3.60;99.90;;;;;;4903289;29;20075;-87
2023/12/05 10:54:58;;;;;;;15.05;8.00;;;3.60;99.90;;;;;;4902798;29;20056;-84
2023/12/05 10:57:36;;;;;;;17.27;8.67;;;3.50;99.90;;;;;;4918901;29;20139;-88
2023/12/05 11:00:05;;;;;;;15.35;8.38;;;3.50;99.90;;;;;;4934213;29;20052;-86
2023/12/05 11:02:38;;;;;;;12.60;6.82;;;3.50;99.90;;;;;;4902869;29;20083;-87
2023/12/05 11:05:19;;;;;;;11.98;6.90;;;3.50;99.90;;;;;;4907178;29;20880;-86
2023/12/05 11:07:46;;;;;;;17.65;9.23;;;3.60;99.90;;;;;;4902249;29;20052;-87
2023/12/05 11:10:16;;;;;;;14.75;7.57;;;3.60;99.90;;;;;;4933649;29;20055;-86
2023/12/05 11:12:48;;;;;;;14.00;7.40;;;3.60;99.90;;;;;;4888029;29;20066;-85
2023/12/05 11:15:29;;;;;;;15.73;7.47;;;3.70;99.90;;;;;;4917843;29;20055;-83
2023/12/05 11:18:25;;;;;;;11.43;5.80;;;3.60;99.90;;;;;;4902513;29;20087;-81
2023/12/05 11:21:02;;;;;;;15.02;7.55;;;3.60;99.90;;;;;;4909147;29;20056;-87
2023/12/05 11:23:51;;;;;;;14.88;8.82;;;3.70;99.90;;;;;;4930142;29;20060;-88
2023/12/05 11:26:36;;;;;;;16.63;8.43;;;3.60;99.90;;;;;;4946013;29;20489;-88
2023/12/05 11:29:46;;;;;;;16.75;9.40;;;3.60;99.90;;;;;;4915682;29;20053;-88
2023/12/05 11:32:17;;;;;;;19.65;9.48;;;3.50;99.90;;;;;;4931611;29;20068;-88
2023/12/05 11:35:10;;;;;;;17.42;8.95;;;3.50;99.90;;;;;;4933937;29;20051;-89
2023/12/05 11:37:59;;;;;;;19.58;9.80;;;3.50;99.90;;;;;;4933609;29;20083;-86
2023/12/05 11:40:27;;;;;;;18.48;9.38;;;3.50;99.90;;;;;;4933855;29;20068;-86
2023/12/05 11:43:07;;;;;;;16.73;7.85;;;3.40;99.90;;;;;;4933653;29;20114;-88
2023/12/05 11:45:44;;;;;;;17.90;8.20;;;3.50;99.90;;;;;;4934043;29;20048;-88
2023/12/05 11:48:15;;;;;;;17.98;9.73;;;3.50;99.90;;;;;;4933664;29;20492;-89
2023/12/05 11:50:45;;;;;;;20.35;10.35;;;3.40;99.90;;;;;;4928721;29;20056;-86
2023/12/05 11:53:19;;;;;;;20.08;10.07;;;3.40;99.90;;;;;;4924191;29;20155;-87
2023/12/05 11:55:49;;;;;;;19.08;10.10;;;3.40;99.90;;;;;;4949284;29;20052;-86
2023/12/05 11:58:33;;;;;;;19.30;10.07;;;3.40;99.90;;;;;;4902052;29;20579;-90
2023/12/05 12:01:09;;;;;;;15.75;8.55;;;3.40;99.90;;;;;;4933702;29;20048;-88
2023/12/05 12:03:43;;;;;;;16.83;9.18;;;3.40;99.90;;;;;;4933146;29;20044;-89
2023/12/05 12:06:10;;;;;;;14.55;7.57;;;3.40;99.90;;;;;;4933139;29;20048;-82
2023/12/05 12:08:39;;;;;;;15.45;7.65;;;3.40;99.90;;;;;;4933082;29;20485;-87
2023/12/05 12:11:06;;;;;;;16.50;9.57;;;3.40;99.90;;;;;;4921155;29;20056;-86
2023/12/05 12:13:34;;;;;;;15.73;8.23;;;3.40;99.90;;;;;;4932860;29;20084;-86
2023/12/05 12:16:01;;;;;;;17.37;8.33;;;3.40;99.90;;;;;;4917508;29;20088;-88
2023/12/05 12:18:28;;;;;;;17.00;8.43;;;3.40;99.90;;;;;;4901850;29;20056;-87
2023/12/05 12:21:09;;;;;;;15.35;8.13;;;3.40;99.90;;;;;;4907135;29;20063;-87
2023/12/05 12:23:37;;;;;;;14.25;7.72;;;3.40;99.90;;;;;;4933178;29;20386;-88
2023/12/05 12:26:09;;;;;;;13.02;6.68;;;3.30;99.90;;;;;;4933011;29;20508;-87
2023/12/05 12:28:36;;;;;;;14.60;7.60;;;3.40;99.90;;;;;;4917310;29;20134;-88
2023/12/05 12:31:04;;;;;;;17.88;8.02;;;3.40;99.90;;;;;;4901907;29;20047;-87
2023/12/05 12:33:40;;;;;;;23.05;10.20;;;3.40;99.90;;;;;;4901779;29;20052;-88
2023/12/05 12:36:09;;;;;;;21.30;10.60;;;3.30;99.90;;;;;;4915691;29;20099;-87
2023/12/05 12:38:37;;;;;;;18.42;9.05;;;3.30;99.90;;;;;;4892905;29;20052;-88
2023/12/05 12:41:04;;;;;;;19.40;8.70;;;3.30;99.90;;;;;;4913457;29;20052;-86
2023/12/05 12:43:36;;;;;;;17.80;8.65;;;3.30;99.90;;;;;;4894695;29;20052;-88
2023/12/05 12:46:04;;;;;;;;;;;3.40;99.90;;;;;;4932896;29;20052;-86
2023/12/05 12:48:36;;;;;;;18.27;8.82;;;3.30;99.90;;;;;;4916436;29;19923;-88
2023/12/05 12:51:05;;;;;;;17.52;7.97;;;3.30;99.90;;;;;;4924502;29;20056;-87
2023/12/05 12:53:33;;;;;;;25.92;11.85;;;3.40;99.90;;;;;;4901459;29;20047;-88
2023/12/05 12:56:02;;;;;;;20.38;9.90;;;3.40;99.90;;;;;;4907809;29;20052;-88
2023/12/05 12:58:39;;;;;;;17.70;8.93;;;3.40;99.90;;;;;;4919850;29;20068;-88